createdAt,value
2019-05-31T00:00:26.763Z,95.89
2019-05-31T00:01:26.735Z,95.79
2019-05-31T00:02:26.733Z,95.51
2019-05-31T00:03:26.722Z,95.89
2019-05-31T00:04:26.726Z,95.6
2019-05-31T00:05:26.732Z,95.6
2019-05-31T00:06:26.830Z,95.51
2019-05-31T00:07:27.768Z,95.98
2019-05-31T00:08:26.715Z,95.89
2019-05-31T00:09:27.080Z,95.51
2019-05-31T00:10:26.813Z,95.7
2019-05-31T00:11:26.743Z,95.51
2019-05-31T00:12:26.750Z,95.31
2019-05-31T00:13:26.774Z,95.03
2019-05-31T00:14:26.785Z,95.89
2019-05-31T00:15:26.765Z,95.6
2019-05-31T00:16:26.752Z,95.79
2019-05-31T00:17:26.740Z,95.89
2019-05-31T00:18:26.748Z,95.51
2019-05-31T00:19:26.757Z,95.98
2019-05-31T00:20:26.758Z,95.7
2019-05-31T00:21:26.751Z,95.89
2019-05-31T00:22:26.800Z,95.79
2019-05-31T00:23:26.762Z,95.79
2019-05-31T00:24:26.785Z,95.98
2019-05-31T00:25:26.774Z,96.7
2019-05-31T00:26:26.760Z,96.51
2019-05-31T00:27:26.767Z,96.7
2019-05-31T00:28:26.779Z,96.89
2019-05-31T00:29:26.817Z,96.8
2019-05-31T00:30:26.786Z,96.75
2019-05-31T00:31:26.773Z,96.66
2019-05-31T00:32:26.767Z,97.28
2019-05-31T00:33:26.771Z,96.99
2019-05-31T00:34:26.813Z,96.99
2019-05-31T00:35:26.801Z,97.18
2019-05-31T00:36:26.932Z,96.99
2019-05-31T00:37:26.789Z,97.47
2019-05-31T00:38:26.780Z,97.66
2019-05-31T00:39:27.149Z,96.99
2019-05-31T00:40:26.820Z,96.99
2019-05-31T00:41:26.814Z,96.89
2019-05-31T00:42:26.819Z,96.99
2019-05-31T00:43:26.807Z,97.28
2019-05-31T00:44:35.446Z,97.38
2019-05-31T00:45:26.807Z,97.18
2019-05-31T00:46:26.802Z,97.09
2019-05-31T00:47:26.815Z,97.09
2019-05-31T00:48:26.799Z,96.85
2019-05-31T00:49:26.811Z,97.38
2019-05-31T00:50:26.791Z,97.66
2019-05-31T00:51:26.840Z,98.14
2019-05-31T00:52:26.815Z,97.56
2019-05-31T00:53:26.802Z,97.85
2019-05-31T00:54:26.821Z,97.18
2019-05-31T00:55:26.810Z,97.85
2019-05-31T00:56:26.813Z,97.56
2019-05-31T00:57:26.944Z,97.76
2019-05-31T00:58:26.847Z,98.05
2019-05-31T00:59:26.873Z,98.91
2019-05-31T01:00:26.860Z,98.05
2019-05-31T01:01:26.886Z,98.81
2019-05-31T01:02:26.856Z,98.91
2019-05-31T01:03:26.832Z,98.72
2019-05-31T01:04:26.805Z,99.19
2019-05-31T01:05:26.819Z,99.19
2019-05-31T01:06:26.827Z,99.99
2019-05-31T01:07:26.852Z,99.48
2019-05-31T01:08:26.838Z,99.58
2019-05-31T01:09:26.861Z,99.99
2019-05-31T01:10:26.846Z,99.99
2019-05-31T01:11:27.635Z,99.99
2019-05-31T01:12:26.988Z,99.99
2019-05-31T01:13:26.850Z,99.99
2019-05-31T01:14:26.856Z,99.99
2019-05-31T01:15:26.900Z,99.99
2019-05-31T01:16:26.849Z,99.87
2019-05-31T01:17:26.837Z,99.48
2019-05-31T01:18:26.866Z,99.39
2019-05-31T01:19:41.793Z,99.68
2019-05-31T01:20:26.853Z,99.87
2019-05-31T01:21:26.866Z,99.87
2019-05-31T01:22:26.866Z,99.99
2019-05-31T01:23:26.848Z,99.99
2019-05-31T01:24:26.859Z,99.99
2019-05-31T01:25:26.863Z,99.99
2019-05-31T01:26:26.850Z,99.99
2019-05-31T01:27:26.876Z,99.99
2019-05-31T01:28:26.866Z,99.99
2019-05-31T01:29:26.847Z,99.99
2019-05-31T01:30:26.900Z,99.99
2019-05-31T01:31:26.871Z,99.99
2019-05-31T01:32:26.874Z,99.99
2019-05-31T01:33:26.856Z,99.99
2019-05-31T01:34:26.867Z,99.99
2019-05-31T01:35:26.907Z,99.99
2019-05-31T01:36:26.894Z,99.99
2019-05-31T01:37:26.885Z,99.99
2019-05-31T01:38:26.947Z,99.99
2019-05-31T01:39:27.243Z,99.99
2019-05-31T01:40:26.887Z,99.99
2019-05-31T01:41:26.890Z,99.99
2019-05-31T01:42:27.005Z,99.99
2019-05-31T01:43:26.912Z,99.99
2019-05-31T01:44:26.907Z,99.99
2019-05-31T01:45:26.900Z,99.99
2019-05-31T01:46:26.926Z,99.99
2019-05-31T01:47:26.913Z,99.99
2019-05-31T01:48:26.937Z,99.99
2019-05-31T01:49:26.927Z,99.99
2019-05-31T01:50:26.933Z,99.99
2019-05-31T01:51:26.916Z,99.99
2019-05-31T01:52:26.908Z,99.99
2019-05-31T01:53:26.911Z,99.99
2019-05-31T01:54:26.934Z,99.99
2019-05-31T01:55:26.950Z,99.99
2019-05-31T01:56:26.917Z,99.99
2019-05-31T01:57:26.895Z,99.99
2019-05-31T01:58:26.933Z,99.99
2019-05-31T01:59:26.956Z,99.99
2019-05-31T02:00:26.945Z,99.99
2019-05-31T02:01:26.950Z,99.99
2019-05-31T02:02:26.953Z,99.99
2019-05-31T02:03:26.966Z,99.99
2019-05-31T02:04:26.945Z,99.99
2019-05-31T02:05:26.907Z,99.99
2019-05-31T02:06:26.932Z,99.99
2019-05-31T02:07:26.925Z,99.99
2019-05-31T02:08:27.484Z,99.99
2019-05-31T02:09:26.941Z,99.99
2019-05-31T02:10:26.968Z,99.99
2019-05-31T02:11:26.984Z,99.99
2019-05-31T02:12:26.930Z,99.99
2019-05-31T02:13:26.982Z,99.99
2019-05-31T02:14:26.943Z,99.99
2019-05-31T02:15:35.331Z,99.99
2019-05-31T02:16:26.953Z,99.99
2019-05-31T02:17:26.983Z,99.99
2019-05-31T02:24:38.094Z,99.99
2019-05-31T02:25:38.087Z,99.99
2019-05-31T02:26:38.083Z,99.99
2019-05-31T02:27:38.111Z,99.99
2019-05-31T02:28:38.118Z,99.99
2019-05-31T02:29:38.214Z,99.99
2019-05-31T02:30:38.186Z,99.99
2019-05-31T02:31:38.180Z,99.99
2019-05-31T02:32:38.101Z,99.99
2019-05-31T02:33:38.106Z,99.99
2019-05-31T02:34:38.117Z,99.99
2019-05-31T02:35:38.121Z,99.99
2019-05-31T02:36:38.113Z,99.99
2019-05-31T02:37:38.135Z,99.99
2019-05-31T02:38:38.118Z,99.99
2019-05-31T02:39:51.179Z,99.99
2019-05-31T02:40:38.095Z,99.99
2019-05-31T02:41:38.177Z,99.99
2019-05-31T02:42:38.130Z,99.99
2019-05-31T02:43:38.121Z,99.99
2019-05-31T02:44:38.103Z,99.99
2019-05-31T02:45:50.110Z,99.99
2019-05-31T02:46:38.140Z,99.99
2019-05-31T02:47:38.158Z,99.99
2019-05-31T02:48:38.125Z,99.99
2019-05-31T02:49:38.132Z,99.99
2019-05-31T02:50:38.180Z,99.99
2019-05-31T02:51:38.140Z,99.99
2019-05-31T02:52:38.134Z,99.99
2019-05-31T02:53:38.113Z,99.99
2019-05-31T02:54:38.129Z,99.99
2019-05-31T02:55:38.167Z,99.99
2019-05-31T02:56:38.101Z,99.99
2019-05-31T02:57:38.263Z,99.99
2019-05-31T02:58:38.166Z,99.99
2019-05-31T02:59:38.172Z,99.99
2019-05-31T03:00:38.165Z,99.99
2019-05-31T03:01:38.175Z,99.99
2019-05-31T03:02:38.153Z,99.99
2019-05-31T03:03:38.187Z,99.99
2019-05-31T03:04:38.150Z,99.99
2019-05-31T03:05:38.188Z,99.99
2019-05-31T03:06:38.189Z,99.99
2019-05-31T03:07:38.169Z,99.99
2019-05-31T03:08:38.175Z,99.99
2019-05-31T03:16:17.987Z,99.99
2019-05-31T03:16:31.062Z,99.99
2019-05-31T03:17:31.070Z,99.99
2019-05-31T03:18:31.075Z,99.99
2019-05-31T03:19:31.060Z,99.99
2019-05-31T03:20:31.080Z,99.99
2019-05-31T03:21:31.096Z,99.99
2019-05-31T03:22:31.092Z,99.99
2019-05-31T03:23:31.066Z,99.99
2019-05-31T03:24:31.108Z,99.99
2019-05-31T03:25:31.189Z,99.99
2019-05-31T03:26:31.106Z,99.99
2019-05-31T03:27:31.054Z,99.99
2019-05-31T03:28:31.019Z,99.99
2019-05-31T03:29:31.027Z,99.99
2019-05-31T03:30:39.756Z,99.99
2019-05-31T03:31:38.737Z,99.99
2019-05-31T03:32:41.087Z,99.99
2019-05-31T03:33:39.687Z,99.99
2019-05-31T03:34:38.370Z,99.99
2019-05-31T03:35:39.580Z,99.99
2019-05-31T03:36:39.043Z,99.99
2019-05-31T03:37:31.039Z,99.99
2019-05-31T03:38:31.022Z,99.99
2019-05-31T03:39:31.037Z,99.99
2019-05-31T03:40:31.034Z,99.99
2019-05-31T03:41:31.025Z,99.99
2019-05-31T03:42:31.056Z,99.99
2019-05-31T03:43:31.018Z,99.99
2019-05-31T03:44:31.048Z,99.99
2019-05-31T03:45:31.034Z,99.99
2019-05-31T03:46:44.049Z,99.99
2019-05-31T03:47:31.053Z,99.99
2019-05-31T03:48:31.024Z,99.99
2019-05-31T03:49:31.047Z,99.99
2019-05-31T03:50:31.205Z,99.99
2019-05-31T03:51:31.078Z,99.99
2019-05-31T03:52:31.041Z,99.99
2019-05-31T03:53:31.152Z,99.99
2019-05-31T03:54:31.033Z,99.99
2019-05-31T03:55:31.085Z,99.99
2019-05-31T03:56:31.066Z,99.99
2019-05-31T03:57:31.126Z,99.99
2019-05-31T03:58:31.079Z,99.99
2019-05-31T03:59:31.089Z,99.99
2019-05-31T04:00:31.034Z,99.99
2019-05-31T04:01:31.161Z,99.99
2019-05-31T04:02:31.066Z,99.99
2019-05-31T04:03:32.426Z,99.99
2019-05-31T04:04:31.109Z,99.99
2019-05-31T04:05:31.053Z,99.99
2019-05-31T04:06:31.072Z,99.99
2019-05-31T04:07:31.085Z,99.99
2019-05-31T04:08:31.431Z,99.99
2019-05-31T04:09:43.742Z,99.99
2019-05-31T04:10:31.096Z,99.99
2019-05-31T04:11:31.122Z,99.99
2019-05-31T04:12:31.078Z,99.99
2019-05-31T04:13:31.124Z,99.99
2019-05-31T04:14:31.079Z,99.99
2019-05-31T04:15:31.197Z,99.99
2019-05-31T04:16:50.764Z,99.99
2019-05-31T04:17:31.081Z,99.99
2019-05-31T04:18:36.906Z,99.99
2019-05-31T04:19:31.078Z,99.99
2019-05-31T04:20:31.118Z,99.99
2019-05-31T04:21:31.131Z,99.99
2019-05-31T04:22:31.164Z,99.99
2019-05-31T04:23:31.168Z,99.99
2019-05-31T04:24:31.090Z,99.99
2019-05-31T04:25:31.458Z,99.99
2019-05-31T04:26:31.102Z,99.99
2019-05-31T04:27:31.120Z,99.99
2019-05-31T04:28:31.119Z,99.99
2019-05-31T04:29:31.119Z,99.99
2019-05-31T04:30:31.153Z,99.99
2019-05-31T04:31:31.156Z,99.99
2019-05-31T04:32:31.122Z,99.99
2019-05-31T04:33:31.106Z,99.99
2019-05-31T04:34:35.109Z,99.99
2019-05-31T04:35:31.116Z,99.99
2019-05-31T04:36:31.132Z,99.99
2019-05-31T04:37:31.190Z,99.99
2019-05-31T04:38:31.470Z,99.99
2019-05-31T04:39:31.391Z,99.99
2019-05-31T04:40:31.114Z,99.99
2019-05-31T04:41:31.129Z,99.99
2019-05-31T04:42:31.127Z,99.99
2019-05-31T04:43:31.254Z,99.99
2019-05-31T04:44:31.145Z,99.99
2019-05-31T04:45:31.128Z,99.99
2019-05-31T04:46:31.139Z,99.99
2019-05-31T04:47:31.191Z,99.99
2019-05-31T04:48:31.150Z,99.99
2019-05-31T04:49:31.156Z,99.99
2019-05-31T04:50:31.167Z,99.99
2019-05-31T04:51:31.147Z,99.99
2019-05-31T04:52:31.133Z,99.99
2019-05-31T04:53:31.158Z,99.99
2019-05-31T04:54:31.149Z,99.99
2019-05-31T04:55:31.152Z,99.99
2019-05-31T04:56:31.161Z,99.99
2019-05-31T04:57:31.166Z,99.99
2019-05-31T04:58:33.240Z,99.99
2019-05-31T04:59:31.198Z,99.99
2019-05-31T05:00:31.399Z,99.99
2019-05-31T05:01:31.161Z,99.99
2019-05-31T05:02:31.180Z,99.99
2019-05-31T05:03:32.947Z,99.99
2019-05-31T05:04:31.172Z,99.99
2019-05-31T05:05:31.183Z,99.99
2019-05-31T05:06:31.169Z,99.99
2019-05-31T05:07:31.150Z,99.99
2019-05-31T05:08:31.178Z,99.99
2019-05-31T05:09:44.081Z,99.99
2019-05-31T05:10:31.286Z,99.99
2019-05-31T05:11:31.176Z,99.99
2019-05-31T05:12:31.201Z,99.99
2019-05-31T05:13:31.210Z,99.99
2019-05-31T05:14:31.227Z,99.99
2019-05-31T05:15:31.173Z,99.99
2019-05-31T05:16:31.183Z,99.99
2019-05-31T05:17:43.395Z,99.99
2019-05-31T05:18:32.853Z,99.99
2019-05-31T05:19:31.551Z,99.99
2019-05-31T05:20:31.185Z,99.99
2019-05-31T05:21:31.219Z,99.99
2019-05-31T05:22:31.221Z,99.99
2019-05-31T05:23:31.228Z,99.99
2019-05-31T05:24:31.193Z,99.99
2019-05-31T05:25:31.252Z,99.99
2019-05-31T05:26:31.227Z,99.99
2019-05-31T05:27:31.207Z,99.99
2019-05-31T05:28:31.298Z,99.99
2019-05-31T05:29:31.226Z,99.99
2019-05-31T05:30:31.229Z,99.99
2019-05-31T05:31:31.307Z,99.99
2019-05-31T05:32:31.246Z,99.99
2019-05-31T05:33:31.439Z,99.99
2019-05-31T05:34:31.215Z,99.99
2019-05-31T05:35:31.821Z,99.99
2019-05-31T05:36:31.311Z,99.99
2019-05-31T05:37:31.319Z,99.99
2019-05-31T05:38:31.636Z,99.99
2019-05-31T05:39:31.576Z,99.99
2019-05-31T05:40:31.662Z,99.99
2019-05-31T05:41:31.259Z,99.99
2019-05-31T05:42:31.861Z,99.99
2019-05-31T05:43:32.069Z,99.99
2019-05-31T05:44:32.016Z,99.99
2019-05-31T05:45:32.368Z,99.99
2019-05-31T05:46:32.114Z,99.99
2019-05-31T05:47:49.135Z,99.99
2019-05-31T05:48:32.456Z,99.99
2019-05-31T05:49:32.417Z,99.99
2019-05-31T05:50:32.483Z,99.99
2019-05-31T05:51:31.221Z,99.99
2019-05-31T05:52:31.266Z,99.99
2019-05-31T05:53:31.271Z,99.99
2019-05-31T05:54:31.263Z,99.99
2019-05-31T05:55:31.476Z,99.99
2019-05-31T05:56:34.552Z,99.99
2019-05-31T05:57:31.475Z,99.99
2019-05-31T05:58:33.124Z,99.99
2019-05-31T05:59:32.177Z,99.99
2019-05-31T06:00:32.490Z,99.99
2019-05-31T06:01:32.105Z,99.99
2019-05-31T06:02:32.277Z,99.99
2019-05-31T06:03:32.376Z,99.99
2019-05-31T06:04:32.518Z,99.99
2019-05-31T06:05:32.648Z,99.99
2019-05-31T06:06:32.239Z,99.99
2019-05-31T06:07:32.394Z,99.99
2019-05-31T06:08:35.996Z,99.99
2019-05-31T06:09:32.410Z,99.99
2019-05-31T06:10:32.714Z,99.99
2019-05-31T06:11:32.208Z,99.99
2019-05-31T06:12:31.658Z,99.99
2019-05-31T06:13:33.068Z,99.99
2019-05-31T06:14:33.055Z,99.99
2019-05-31T06:15:32.659Z,99.99
2019-05-31T06:17:01.734Z,99.99
2019-05-31T06:17:32.458Z,99.99
2019-05-31T06:18:32.375Z,99.99
2019-05-31T06:19:32.515Z,99.99
2019-05-31T06:20:32.417Z,99.99
2019-05-31T06:21:32.411Z,99.99
2019-05-31T06:22:37.034Z,99.99
2019-05-31T06:23:32.612Z,99.99
2019-05-31T06:24:31.284Z,99.99
2019-05-31T06:25:37.097Z,99.99
2019-05-31T06:26:31.333Z,99.99
2019-05-31T06:27:31.319Z,99.99
2019-05-31T06:28:31.376Z,99.99
2019-05-31T06:29:31.356Z,99.99
2019-05-31T06:30:31.383Z,99.99
2019-05-31T06:31:31.745Z,99.99
2019-05-31T06:32:32.923Z,99.99
2019-05-31T06:33:32.961Z,99.99
2019-05-31T06:34:31.391Z,99.99
2019-05-31T06:35:31.540Z,99.99
2019-05-31T06:36:31.363Z,99.99
2019-05-31T06:37:32.941Z,99.99
2019-05-31T06:38:31.473Z,99.99
2019-05-31T06:39:31.634Z,99.99
2019-05-31T06:40:32.509Z,99.99
2019-05-31T06:41:32.311Z,99.99
2019-05-31T06:42:33.906Z,99.99
2019-05-31T06:43:37.404Z,99.99
2019-05-31T06:44:31.860Z,99.99
2019-05-31T06:45:32.707Z,99.99
2019-05-31T06:46:33.836Z,99.99
2019-05-31T06:47:32.392Z,99.99
2019-05-31T06:48:32.373Z,99.99
2019-05-31T06:49:31.375Z,99.99
2019-05-31T06:50:38.776Z,99.99
2019-05-31T06:51:31.520Z,99.99
2019-05-31T06:52:32.776Z,99.99
2019-05-31T06:53:31.959Z,99.99
2019-05-31T06:54:36.112Z,99.99
2019-05-31T06:55:32.079Z,99.99
2019-05-31T06:56:32.326Z,99.99
2019-05-31T06:57:33.799Z,99.99
2019-05-31T06:58:32.563Z,99.99
2019-05-31T06:59:32.613Z,99.99
2019-05-31T07:00:35.167Z,99.99
2019-05-31T07:01:34.382Z,99.99
2019-05-31T07:02:32.272Z,99.99
2019-05-31T07:03:32.837Z,99.99
2019-05-31T07:04:34.782Z,99.99
2019-05-31T07:05:32.242Z,99.99
2019-05-31T07:06:33.312Z,99.99
2019-05-31T07:07:42.206Z,99.99
2019-05-31T07:08:32.695Z,99.99
2019-05-31T07:09:32.659Z,99.99
2019-05-31T07:10:35.347Z,99.99
2019-05-31T07:11:33.430Z,99.99
2019-05-31T07:12:33.539Z,99.99
2019-05-31T07:13:33.721Z,99.99
2019-05-31T07:14:34.627Z,99.99
2019-05-31T07:15:34.582Z,99.99
2019-05-31T07:16:36.045Z,99.99
2019-05-31T07:17:48.739Z,99.99
2019-05-31T07:18:46.067Z,99.99
2019-05-31T07:19:33.980Z,99.99
2019-05-31T07:20:32.835Z,99.99
2019-05-31T07:21:36.590Z,99.99
2019-05-31T07:22:32.934Z,99.99
2019-05-31T07:23:40.866Z,99.99
2019-05-31T07:24:32.333Z,99.99
2019-05-31T07:25:32.774Z,99.99
2019-05-31T07:26:32.615Z,99.99
2019-05-31T07:27:31.585Z,99.99
2019-05-31T07:28:33.089Z,99.99
2019-05-31T07:29:43.612Z,99.99
2019-05-31T07:30:33.400Z,99.99
2019-05-31T07:31:32.508Z,99.99
2019-05-31T07:32:33.518Z,99.99
2019-05-31T07:33:34.077Z,99.99
2019-05-31T07:34:33.562Z,99.99
2019-05-31T07:35:33.964Z,99.99
2019-05-31T07:36:34.122Z,99.99
2019-05-31T07:37:38.985Z,99.99
2019-05-31T07:38:32.307Z,99.99
2019-05-31T07:39:32.832Z,99.99
2019-05-31T07:40:33.231Z,99.99
2019-05-31T07:41:32.791Z,99.99
2019-05-31T07:42:31.513Z,99.99
2019-05-31T07:43:31.479Z,99.99
2019-05-31T07:44:31.453Z,99.99
2019-05-31T07:45:31.492Z,99.99
2019-05-31T07:46:41.454Z,99.99
2019-05-31T07:47:31.561Z,99.99
2019-05-31T07:48:32.143Z,99.99
2019-05-31T07:49:31.876Z,99.99
2019-05-31T07:50:32.187Z,99.99
2019-05-31T07:51:32.276Z,99.99
2019-05-31T07:52:32.361Z,99.99
2019-05-31T07:53:32.572Z,99.99
2019-05-31T07:54:32.664Z,99.99
2019-05-31T07:55:32.626Z,99.99
2019-05-31T07:56:32.730Z,98.82
2019-05-31T07:57:31.631Z,99.26
2019-05-31T07:58:31.478Z,97.62
2019-05-31T07:59:33.647Z,99.35
2019-05-31T08:00:32.898Z,98.29
2019-05-31T08:01:32.842Z,98.1
2019-05-31T08:02:32.504Z,99.21
2019-05-31T08:03:32.862Z,99.01
2019-05-31T08:04:32.898Z,99.84
2019-05-31T08:05:32.018Z,99.06
2019-05-31T08:06:34.302Z,98.54
2019-05-31T08:07:31.552Z,97.86
2019-05-31T08:08:36.077Z,97.57
2019-05-31T08:09:45.431Z,96.51
2019-05-31T08:10:33.286Z,96.08
2019-05-31T08:11:31.816Z,96.94
2019-05-31T08:12:33.356Z,97.14
2019-05-31T08:13:33.354Z,96.75
2019-05-31T08:14:31.831Z,97.42
2019-05-31T08:15:31.898Z,97.62
2019-05-31T08:16:33.862Z,98
2019-05-31T08:17:33.093Z,97.24
2019-05-31T08:18:35.956Z,97.24
2019-05-31T08:19:33.442Z,97.14
2019-05-31T08:20:33.561Z,96.56
2019-05-31T08:21:37.063Z,96.46
2019-05-31T08:22:32.010Z,96.7
2019-05-31T08:23:34.970Z,95.74
2019-05-31T08:24:52.590Z,96.42
2019-05-31T08:25:52.558Z,96.17
2019-05-31T08:26:52.576Z,95.5
2019-05-31T08:27:52.568Z,94.54
2019-05-31T08:28:52.579Z,93.66
2019-05-31T08:29:52.572Z,93.86
2019-05-31T08:30:52.581Z,93.48
2019-05-31T08:31:52.677Z,94.82
2019-05-31T08:32:52.572Z,94.54
2019-05-31T08:33:52.585Z,94.06
2019-05-31T08:34:53.940Z,94.15
2019-05-31T08:35:52.593Z,94.54
2019-05-31T08:37:09.017Z,93.86
2019-05-31T08:37:52.586Z,93.66
2019-05-31T08:38:52.571Z,92.71
2019-05-31T08:39:54.679Z,92.65
2019-05-31T08:40:52.567Z,91.83
2019-05-31T08:41:52.576Z,91.78
2019-05-31T08:42:52.690Z,91.11
2019-05-31T08:43:52.606Z,92.36
2019-05-31T08:45:08.560Z,91.11
2019-05-31T08:45:52.639Z,91.2
2019-05-31T08:46:52.586Z,91.11
2019-05-31T08:47:52.599Z,91.78
2019-05-31T08:48:52.616Z,91.06
2019-05-31T08:49:52.633Z,91.06
2019-05-31T08:50:52.614Z,90.87
2019-05-31T08:51:52.625Z,90.19
2019-05-31T08:52:52.603Z,90.91
2019-05-31T08:53:52.589Z,88.98
2019-05-31T08:54:52.720Z,88.93
2019-05-31T08:55:52.666Z,88.45
2019-05-31T08:56:52.616Z,88.69
2019-05-31T08:57:52.659Z,88.45
2019-05-31T08:58:52.669Z,87.97
2019-05-31T08:59:52.651Z,88.26
2019-05-31T09:00:52.802Z,87.63
2019-05-31T09:02:07.081Z,88.89
2019-05-31T09:02:52.653Z,88.5
2019-05-31T09:03:52.634Z,88.98
2019-05-31T09:04:52.633Z,89.07
2019-05-31T09:05:52.687Z,88.64
2019-05-31T09:06:52.646Z,88.06
2019-05-31T09:07:52.696Z,87.58
2019-05-31T09:08:52.694Z,87.05
2019-05-31T09:09:52.690Z,87.63
2019-05-31T09:10:52.663Z,87.53
2019-05-31T09:11:52.689Z,87.73
2019-05-31T09:12:52.634Z,87
2019-05-31T09:13:52.651Z,87.09
2019-05-31T09:14:52.626Z,87.73
2019-05-31T09:15:52.672Z,86.96
2019-05-31T09:16:52.731Z,87.44
2019-05-31T09:17:52.639Z,88.21
2019-05-31T09:18:56.973Z,87.92
2019-05-31T09:20:02.037Z,87.24
2019-05-31T09:20:52.685Z,87.29
2019-05-31T09:21:52.673Z,87.58
2019-05-31T09:22:52.637Z,87.53
2019-05-31T09:23:52.661Z,87.77
2019-05-31T09:24:52.668Z,86.57
2019-05-31T09:25:52.658Z,86.47
2019-05-31T09:26:52.662Z,86.66
2019-05-31T09:27:58.626Z,85.11
2019-05-31T09:28:52.662Z,83.75
2019-05-31T09:30:22.072Z,83.22
2019-05-31T09:30:52.693Z,82.89
2019-05-31T09:31:52.695Z,82.06
2019-05-31T09:32:52.720Z,83.22
2019-05-31T09:33:52.682Z,82.73
2019-05-31T09:34:52.674Z,82.93
2019-05-31T09:35:52.700Z,83.06
2019-05-31T09:36:52.667Z,82.39
2019-05-31T09:37:52.729Z,82.35
2019-05-31T09:38:52.806Z,82.45
2019-05-31T09:39:53.654Z,82
2019-05-31T09:40:52.708Z,82.29
2019-05-31T09:41:52.690Z,80.79
2019-05-31T09:42:57.362Z,79.62
2019-05-31T09:43:52.724Z,80.05
2019-05-31T09:44:52.957Z,79.5
2019-05-31T09:45:52.710Z,80.05
2019-05-31T09:46:52.717Z,80.44
2019-05-31T09:47:52.784Z,79.12
2019-05-31T09:48:53.509Z,79.41
2019-05-31T09:49:52.949Z,80.15
2019-05-31T09:50:52.732Z,79.9
2019-05-31T09:51:52.710Z,79.7
2019-05-31T09:52:52.847Z,79.74
2019-05-31T09:53:52.703Z,79.74
2019-05-31T09:54:54.816Z,79.9
2019-05-31T09:55:52.745Z,79.41
2019-05-31T09:56:52.744Z,80.28
2019-05-31T09:57:52.791Z,80.28
2019-05-31T09:58:52.863Z,80.92
2019-05-31T09:59:52.886Z,81.98
2019-05-31T10:00:52.837Z,80.69
2019-05-31T10:01:52.725Z,81.27
2019-05-31T10:02:52.726Z,81.46
2019-05-31T10:03:52.754Z,80.79
2019-05-31T10:04:52.825Z,80.05
2019-05-31T10:05:52.742Z,79.95
2019-05-31T10:06:52.770Z,81.02
2019-05-31T10:08:06.605Z,80.92
2019-05-31T10:08:52.808Z,80.15
2019-05-31T10:09:53.660Z,80.09
2019-05-31T10:10:52.790Z,79.95
2019-05-31T10:11:52.744Z,81.35
2019-05-31T10:12:52.738Z,80.73
2019-05-31T10:13:52.730Z,81.7
2019-05-31T10:14:52.761Z,81.35
2019-05-31T10:15:52.745Z,81.89
2019-05-31T10:16:52.728Z,80.96
2019-05-31T10:17:52.756Z,81.25
2019-05-31T10:18:52.741Z,80.24
2019-05-31T10:19:52.770Z,79.57
2019-05-31T10:20:52.744Z,79.32
2019-05-31T10:21:52.810Z,78.48
2019-05-31T10:22:52.750Z,78.03
2019-05-31T10:23:59.392Z,77.94
2019-05-31T10:24:52.783Z,79.1
2019-05-31T10:25:52.832Z,76.91
2019-05-31T10:26:52.775Z,75.94
2019-05-31T10:27:52.762Z,75.78
2019-05-31T10:28:52.787Z,77.16
2019-05-31T10:29:53.112Z,77.06
2019-05-31T10:30:52.803Z,76.93
2019-05-31T10:31:52.818Z,76.74
2019-05-31T10:32:52.840Z,79.1
2019-05-31T10:33:52.795Z,77.29
2019-05-31T10:34:52.790Z,75.98
2019-05-31T10:35:52.776Z,74.33
2019-05-31T10:36:52.802Z,74.87
2019-05-31T10:37:52.789Z,74.97
2019-05-31T10:38:52.801Z,74.97
2019-05-31T10:39:52.879Z,74.97
2019-05-31T10:40:52.804Z,73.94
2019-05-31T10:41:52.894Z,73.94
2019-05-31T10:42:52.819Z,73.94
2019-05-31T10:43:52.826Z,72.93
2019-05-31T10:44:52.809Z,73.9
2019-05-31T10:45:52.836Z,71.32
2019-05-31T10:46:52.843Z,70.87
2019-05-31T10:47:52.811Z,71.26
2019-05-31T10:48:52.822Z,72.33
2019-05-31T10:49:52.808Z,74.23
2019-05-31T10:51:00.965Z,74.58
2019-05-31T10:51:52.842Z,74.68
2019-05-31T10:52:52.816Z,74.68
2019-05-31T10:53:52.827Z,74.58
2019-05-31T10:54:52.858Z,74.49
2019-05-31T10:55:52.824Z,74.87
2019-05-31T10:56:52.829Z,74.58
2019-05-31T10:57:52.861Z,74.68
2019-05-31T10:58:52.843Z,74.68
2019-05-31T10:59:52.838Z,74.84
2019-05-31T11:00:52.837Z,74.8
2019-05-31T11:01:52.985Z,75.87
2019-05-31T11:02:52.848Z,76.1
2019-05-31T11:03:52.954Z,76.06
2019-05-31T11:04:52.882Z,74.7
2019-05-31T11:05:52.850Z,75.28
2019-05-31T11:06:52.849Z,75.13
2019-05-31T11:07:52.858Z,75.87
2019-05-31T11:08:52.864Z,76.25
2019-05-31T11:09:52.969Z,76.06
2019-05-31T11:10:52.850Z,76.93
2019-05-31T11:11:52.936Z,77.7
2019-05-31T11:12:52.865Z,77.09
2019-05-31T11:13:52.890Z,76.21
2019-05-31T11:14:52.940Z,76.6
2019-05-31T11:15:53.314Z,76.89
2019-05-31T11:16:52.880Z,77.53
2019-05-31T11:17:55.415Z,77.11
2019-05-31T11:18:52.967Z,76.7
2019-05-31T11:20:06.144Z,76.99
2019-05-31T11:21:05.430Z,76.87
2019-05-31T11:21:52.879Z,76.52
2019-05-31T11:22:52.870Z,74.1
2019-05-31T11:23:52.895Z,74.87
2019-05-31T11:24:52.919Z,73.64
2019-05-31T11:25:52.873Z,73.22
2019-05-31T11:26:53.369Z,72.87
2019-05-31T11:27:53.004Z,72.52
2019-05-31T11:28:52.894Z,72.55
2019-05-31T11:29:57.162Z,71.42
2019-05-31T11:30:53.064Z,70.83
2019-05-31T11:31:52.886Z,71.16
2019-05-31T11:32:55.862Z,70.77
2019-05-31T11:33:54.337Z,71.61
2019-05-31T11:34:52.984Z,71.9
2019-05-31T11:35:58.549Z,71.64
2019-05-31T11:36:52.944Z,71.22
2019-05-31T11:37:52.905Z,71
2019-05-31T11:38:52.894Z,70.03
2019-05-31T11:39:53.082Z,70.81
2019-05-31T11:40:52.981Z,69.67
2019-05-31T11:41:57.124Z,70.94
2019-05-31T11:43:10.505Z,69.13
2019-05-31T11:43:52.897Z,68.54
2019-05-31T11:44:52.960Z,69.48
2019-05-31T11:45:52.953Z,68.84
2019-05-31T11:46:52.936Z,69.9
2019-05-31T11:47:54.211Z,69.77
2019-05-31T11:48:52.969Z,70.94
2019-05-31T11:49:53.063Z,68.96
2019-05-31T11:50:52.924Z,69.29
2019-05-31T11:51:52.969Z,69.19
2019-05-31T11:52:52.964Z,71.1
2019-05-31T11:53:56.406Z,69.45
2019-05-31T11:57:10.844Z,70
2019-05-31T11:57:21.883Z,69.77
2019-05-31T11:58:21.876Z,69.45
2019-05-31T11:59:23.224Z,69.96
2019-05-31T12:00:22.520Z,69.19
2019-05-31T12:01:21.888Z,68.6
2019-05-31T12:02:21.950Z,68.54
2019-05-31T12:03:21.900Z,68.6
2019-05-31T12:04:21.880Z,66.63
2019-05-31T12:05:21.922Z,66.63
2019-05-31T12:06:21.874Z,67.21
2019-05-31T12:07:21.903Z,66.69
2019-05-31T12:08:21.930Z,66.79
2019-05-31T12:09:21.934Z,68.84
2019-05-31T12:10:21.942Z,67.73
2019-05-31T12:11:21.883Z,68.25
2019-05-31T12:12:21.914Z,67.9
2019-05-31T12:13:21.894Z,67.28
2019-05-31T12:14:21.878Z,68.84
2019-05-31T12:15:21.889Z,68.09
2019-05-31T12:16:21.904Z,67.6
2019-05-31T12:17:21.911Z,66.34
2019-05-31T12:18:21.888Z,66.79
2019-05-31T12:19:21.915Z,67.05
2019-05-31T12:20:21.940Z,66.6
2019-05-31T12:21:21.925Z,66.34
2019-05-31T12:22:21.932Z,64.88
2019-05-31T12:23:21.918Z,64.91
2019-05-31T12:24:21.886Z,64.2
2019-05-31T12:25:21.964Z,63.94
2019-05-31T12:26:21.943Z,64.07
2019-05-31T12:27:21.951Z,63.61
2019-05-31T12:28:21.919Z,62.41
2019-05-31T12:29:21.910Z,62.6
2019-05-31T12:30:25.591Z,63.55
2019-05-31T12:31:21.918Z,63.97
2019-05-31T12:32:21.958Z,65.36
2019-05-31T12:33:21.944Z,64.1
2019-05-31T12:34:21.929Z,64.75
2019-05-31T12:35:22.030Z,65.69
2019-05-31T12:36:23.901Z,66.24
2019-05-31T12:37:21.954Z,65.95
2019-05-31T12:38:21.957Z,65.33
2019-05-31T12:39:21.969Z,65.23
2019-05-31T12:40:21.987Z,64.94
2019-05-31T12:41:21.961Z,64.59
2019-05-31T12:42:21.946Z,64.07
2019-05-31T12:43:21.996Z,65.69
2019-05-31T12:44:21.981Z,66.31
2019-05-31T12:45:22.058Z,67.05
2019-05-31T12:46:21.961Z,65.82
2019-05-31T12:47:22.208Z,65.23
2019-05-31T12:48:21.956Z,66.05
2019-05-31T12:49:21.949Z,66.4
2019-05-31T12:50:27.980Z,67.63
2019-05-31T12:51:29.809Z,68.51
2019-05-31T12:52:21.994Z,69.09
2019-05-31T12:53:21.978Z,69.48
2019-05-31T12:54:21.946Z,69.45
2019-05-31T12:55:21.990Z,69.77
2019-05-31T12:56:21.998Z,69.45
2019-05-31T12:57:22.014Z,69.54
2019-05-31T12:58:22.000Z,69.7
2019-05-31T12:59:21.976Z,69.86
2019-05-31T13:00:21.965Z,69.9
2019-05-31T13:01:21.994Z,69.96
2019-05-31T13:02:22.019Z,69.57
2019-05-31T13:03:22.003Z,69.48
2019-05-31T13:04:21.998Z,70.25
2019-05-31T13:05:22.041Z,69.86
2019-05-31T13:06:22.002Z,69.86
2019-05-31T13:07:21.997Z,70.06
2019-05-31T13:08:22.201Z,69.76